Time;durP1;ratioP1;P1;durP2;ratioP2;P2;SDS_P1;SDS_P2;PMS_P1;PMS_P2;Temp;Humidity;BMP_temperature;BMP_pressure;BME280_temperature;BME280_humidity;BME280_pressure;Samples;Min_cycle;Max_cycle;Signal;HPM_P1;HPM_P2
2023/01/06 00:02:09;;;;;;;;;;;;;;;2.08;84.19;95663.50;5073162;28;1906;-48
2023/01/06 00:04:35;;;;;;;;;;;;;;;2.07;83.81;95673.22;5073089;28;1033;-48
2023/01/06 00:07:01;;;;;;;;;;;;;;;1.76;82.88;95663.72;5073041;28;1010;-49
2023/01/06 00:09:27;;;;;;;;;;;;;;;1.38;85.10;95669.53;5072948;28;975;-49
2023/01/06 00:11:53;;;;;;;;;;;;;;;1.38;85.28;95671.34;5072708;28;1237;-48
2023/01/06 00:14:19;;;;;;;;;;;;;;;1.23;85.58;95670.47;5073257;28;1126;-48
2023/01/06 00:16:45;;;;;;;;;;;;;;;1.37;85.57;95667.84;5073027;28;973;-48
2023/01/06 00:19:11;;;;;;;;;;;;;;;1.31;85.31;95668.19;5072913;28;984;-49
2023/01/06 00:21:37;;;;;;;;;;;;;;;1.29;86.16;95673.59;5072812;28;1985;-48
2023/01/06 00:24:03;;;;;;;;;;;;;;;1.30;87.88;95692.88;5072536;28;1255;-49
2023/01/06 00:26:29;;;;;;;;;;;;;;;1.73;88.36;95695.56;5073106;28;1057;-48
2023/01/06 00:28:55;;;;;;;;;;;;;;;2.03;86.80;95699.84;5072806;28;1040;-48
2023/01/06 00:31:22;;;;;;;;;;;;;;;2.02;85.02;95699.03;5072983;28;1019;-48
2023/01/06 00:33:48;;;;;;;;;;;;;;;2.04;84.46;95720.88;5072709;28;1079;-48
2023/01/06 00:36:14;;;;;;;;;;;;;;;1.95;84.07;95729.34;5072654;28;1036;-48
2023/01/06 00:38:40;;;;;;;;;;;;;;;1.90;83.82;95740.19;5072658;28;1856;-48
2023/01/06 00:43:56;;;;;;;;;;;;;;;1.90;83.86;95742.00;5072649;28;1063;-49
2023/01/06 00:46:25;;;;;;;;;;;;;;;1.84;84.62;95727.38;5072678;28;1242;-48
2023/01/06 00:48:51;;;;;;;;;;;;;;;1.91;84.73;95723.41;5072647;28;1045;-48
2023/01/06 00:51:17;;;;;;;;;;;;;;;2.08;85.57;95711.81;5073456;28;1023;-48
2023/01/06 00:53:43;;;;;;;;;;;;;;;2.15;84.68;95710.50;5076222;28;1021;-48
2023/01/06 00:56:09;;;;;;;;;;;;;;;1.74;84.04;95707.78;5076308;28;1060;-48
2023/01/06 00:58:36;;;;;;;;;;;;;;;1.53;85.93;95712.56;5076112;28;1119;-47
2023/01/06 01:01:05;;;;;;;;;;;;;;;1.45;87.03;95723.56;5076023;28;1901;-48
2023/01/06 01:03:32;;;;;;;;;;;;;;;1.57;86.91;95714.06;5076096;28;1047;-48
2023/01/06 01:06:02;;;;;;;;;;;;;;;1.90;85.77;95711.19;5075893;28;958;-48
2023/01/06 01:08:28;;;;;;;;;;;;;;;2.04;84.97;95718.22;5076137;28;1025;-48
2023/01/06 01:10:54;;;;;;;;;;;;;;;2.04;85.24;95723.50;5076021;28;1027;-48
2023/01/06 01:13:21;;;;;;;;;;;;;;;2.20;84.96;95720.78;5075648;28;1254;-49
2023/01/06 01:15:48;;;;;;;;;;;;;;;2.18;85.93;95714.72;5075787;28;1035;-49
2023/01/06 01:18:15;;;;;;;;;;;;;;;2.26;84.84;95711.63;5075725;28;1020;-48
2023/01/06 01:20:44;;;;;;;;;;;;;;;2.38;84.41;95723.19;5076076;28;1902;-48
2023/01/06 01:23:10;;;;;;;;;;;;;;;2.15;85.39;95739.53;5075577;28;1459;-48
2023/01/06 01:25:36;;;;;;;;;;;;;;;1.99;84.99;95741.41;5075603;28;1052;-48
2023/01/06 01:28:02;;;;;;;;;;;;;;;2.00;85.04;95745.75;5075661;28;972;-49
2023/01/06 01:30:28;;;;;;;;;;;;;;;2.01;84.98;95730.75;5075566;28;1028;-48
2023/01/06 01:32:54;;;;;;;;;;;;;;;1.90;85.22;95749.91;5075301;28;1037;-48
2023/01/06 01:35:20;;;;;;;;;;;;;;;1.53;84.12;95752.09;5075646;28;1021;-48
2023/01/06 01:37:46;;;;;;;;;;;;;;;1.27;88.05;95765.03;5075522;28;968;-48
2023/01/06 01:40:12;;;;;;;;;;;;;;;1.45;87.81;95751.72;5075305;28;1914;-48
2023/01/06 01:42:38;;;;;;;;;;;;;;;1.66;87.23;95746.94;5075325;28;1080;-49
2023/01/06 01:45:05;;;;;;;;;;;;;;;1.91;86.37;95752.41;5075277;28;947;-48
2023/01/06 01:47:37;;;;;;;;;;;;;;;1.94;86.98;95762.78;5075152;28;1037;-48
2023/01/06 01:50:09;;;;;;;;;;;;;;;1.85;85.61;95758.06;5075297;28;1014;-48
2023/01/06 01:52:35;;;;;;;;;;;;;;;1.84;86.21;95761.66;5075348;28;938;-48
2023/01/06 01:55:02;;;;;;;;;;;;;;;1.95;86.34;95766.28;5075105;28;1000;-49
2023/01/06 01:57:32;;;;;;;;;;;;;;;1.95;87.24;95772.41;5075091;28;1020;-48
2023/01/06 01:59:58;;;;;;;;;;;;;;;2.14;87.20;95766.00;5075097;28;1902;-48
2023/01/06 02:02:27;;;;;;;;;;;;;;;2.33;86.90;95768.34;5074281;28;1786;-48
2023/01/06 02:04:54;;;;;;;;;;;;;;;2.46;86.70;95758.69;5074678;28;1038;-48
2023/01/06 02:07:21;;;;;;;;;;;;;;;2.58;86.61;95750.94;5074832;28;1014;-49
2023/01/06 02:09:55;;;;;;;;;;;;;;;2.83;86.55;95742.31;5074838;28;1023;-48
2023/01/06 02:12:21;;;;;;;;;;;;;;;3.00;85.88;95738.56;5074453;28;1235;-49
2023/01/06 02:14:47;;;;;;;;;;;;;;;3.02;86.27;95747.25;5074512;28;1039;-48
2023/01/06 02:17:28;;;;;;;;;;;;;;;2.65;87.13;95742.53;5074837;28;988;-48
2023/01/06 02:20:13;;;;;;;;;;;;;;;2.63;87.40;95735.66;5074647;28;969;-49
2023/01/06 02:22:58;;;;;;;;;;;;;;;2.80;87.21;95739.88;5074546;28;978;-49
2023/01/06 02:25:30;;;;;;;;;;;;;;;2.96;86.76;95742.34;5074272;28;1522;-49
2023/01/06 02:28:14;;;;;;;;;;;;;;;2.98;86.53;95732.53;5074600;28;964;-49
2023/01/06 02:30:46;;;;;;;;;;;;;;;2.96;86.56;95750.28;5074475;28;982;-48
2023/01/06 02:33:18;;;;;;;;;;;;;;;3.02;86.59;95742.81;5074407;28;1001;-48
2023/01/06 02:35:50;;;;;;;;;;;;;;;3.04;86.53;95732.16;5074210;28;1182;-49
2023/01/06 02:38:25;;;;;;;;;;;;;;;2.93;86.80;95746.88;5074213;28;1118;-48
2023/01/06 02:40:52;;;;;;;;;;;;;;;2.97;86.72;95749.34;5074006;28;1934;-48
2023/01/06 02:43:36;;;;;;;;;;;;;;;2.85;87.35;95754.47;5074255;28;983;-48
2023/01/06 02:46:08;;;;;;;;;;;;;;;2.72;87.03;95756.22;5073921;28;997;-48
2023/01/06 02:48:40;;;;;;;;;;;;;;;2.69;86.58;95764.31;5074246;28;985;-49
2023/01/06 02:51:16;;;;;;;;;;;;;;;2.46;86.88;95750.78;5073920;28;1037;-49
2023/01/06 02:53:50;;;;;;;;;;;;;;;2.24;87.68;95763.63;5074083;28;989;-49
2023/01/06 02:56:19;;;;;;;;;;;;;;;2.23;87.82;95767.22;5073953;28;1081;-49
2023/01/06 02:58:50;;;;;;;;;;;;;;;2.23;87.53;95769.88;5056059;28;973;-48
2023/01/06 03:01:20;;;;;;;;;;;;;;;2.07;88.16;95778.72;5073680;28;1909;-48
2023/01/06 03:03:47;;;;;;;;;;;;;;;1.94;88.73;95769.88;5073853;28;1068;-49
2023/01/06 03:06:17;;;;;;;;;;;;;;;1.89;89.07;95777.19;5073861;28;968;-48
2023/01/06 03:08:45;;;;;;;;;;;;;;;2.11;88.29;95779.38;5073824;28;1056;-49
2023/01/06 03:11:11;;;;;;;;;;;;;;;2.28;87.51;95783.63;5073639;28;951;-48
2023/01/06 03:14:13;;;;;;;;;;;;;;;2.41;87.52;95773.13;5069491;28;1177;-49
2023/01/06 03:16:39;;;;;;;;;;;;;;;2.53;87.31;95765.28;5073423;28;1399;-49
2023/01/06 03:19:06;;;;;;;;;;;;;;;2.57;87.23;95767.75;5073589;28;1024;-49
2023/01/06 03:21:34;;;;;;;;;;;;;;;2.60;87.50;95765.78;5073399;28;1910;-49
2023/01/06 03:24:03;;;;;;;;;;;;;;;2.54;87.35;95767.00;5073231;28;1471;-48
2023/01/06 03:26:29;;;;;;;;;;;;;;;2.32;88.08;95762.22;5073718;28;1036;-48
2023/01/06 03:28:55;;;;;;;;;;;;;;;2.52;87.97;95763.63;5073600;28;1084;-49
2023/01/06 03:31:33;;;;;;;;;;;;;;;2.70;87.88;95753.66;5073561;28;995;-48
2023/01/06 03:34:02;;;;;;;;;;;;;;;2.89;86.87;95749.84;5073488;28;1071;-48
2023/01/06 03:36:29;;;;;;;;;;;;;;;3.09;86.37;95751.16;5073307;28;949;-48
2023/01/06 03:39:08;;;;;;;;;;;;;;;2.81;86.79;95730.97;5073317;28;1884;-48
2023/01/06 03:44:36;;;;;;;;;;;;;;;2.63;88.53;95740.94;5073327;28;2000;-49
2023/01/06 03:47:14;;;;;;;;;;;;;;;2.62;89.30;95739.25;5073116;28;1012;-48
2023/01/06 03:50:12;;;;;;;;;;;;;;;2.85;88.04;95735.16;5073477;28;953;-49
2023/01/06 03:52:44;;;;;;;;;;;;;;;2.91;86.96;95734.75;5050354;28;1154;-48
2023/01/06 03:55:14;;;;;;;;;;;;;;;2.95;86.81;95740.69;5073189;28;1020;-49
2023/01/06 03:57:43;;;;;;;;;;;;;;;2.94;86.80;95739.84;5073172;28;1084;-49
2023/01/06 04:00:18;;;;;;;;;;;;;;;3.01;86.95;95742.91;5073053;28;1917;-49
2023/01/06 04:02:44;;;;;;;;;;;;;;;2.96;86.84;95745.88;5073223;28;973;-48
2023/01/06 04:05:15;;;;;;;;;;;;;;;2.97;86.97;95755.47;5073258;28;1027;-49
2023/01/06 04:07:42;;;;;;;;;;;;;;;2.79;87.16;95761.94;5073087;28;1095;-48
2023/01/06 04:10:09;;;;;;;;;;;;;;;2.60;88.40;95762.25;5073199;28;989;-48
2023/01/06 04:12:38;;;;;;;;;;;;;;;2.39;89.25;95772.38;5073021;28;1998;-49
2023/01/06 04:15:05;;;;;;;;;;;;;;;2.17;89.91;95775.53;5072955;28;1315;-48
2023/01/06 04:17:31;;;;;;;;;;;;;;;2.32;88.99;95779.84;5072994;28;1068;-48
2023/01/06 04:19:57;;;;;;;;;;;;;;;2.40;88.18;95772.28;5071715;28;1052;-49
2023/01/06 04:22:23;;;;;;;;;;;;;;;2.48;87.66;95764.72;5072848;28;1902;-48
2023/01/06 04:24:49;;;;;;;;;;;;;;;2.52;86.97;95768.91;5072902;28;1526;-48
2023/01/06 04:27:15;;;;;;;;;;;;;;;2.51;87.11;95764.53;5075567;28;1188;-49
2023/01/06 04:29:41;;;;;;;;;;;;;;;2.52;87.01;95773.31;5059107;28;997;-49
2023/01/06 04:32:07;;;;;;;;;;;;;;;2.59;86.84;95768.50;5076655;28;962;-48
2023/01/06 04:34:34;;;;;;;;;;;;;;;2.47;86.65;95773.59;5076535;28;1855;-49
2023/01/06 04:37:00;;;;;;;;;;;;;;;2.46;86.89;95768.41;5076420;28;1036;-49
2023/01/06 04:39:26;;;;;;;;;;;;;;;2.44;86.48;95776.44;5076436;28;1032;-49
2023/01/06 04:41:52;;;;;;;;;;;;;;;2.54;86.72;95779.34;5076497;28;1985;-48
2023/01/06 04:44:18;;;;;;;;;;;;;;;2.53;86.48;95777.66;5058725;28;1024;-49
2023/01/06 04:46:44;;;;;;;;;;;;;;;2.17;87.66;95786.09;5076359;28;1024;-49
2023/01/06 04:49:10;;;;;;;;;;;;;;;2.08;88.06;95775.13;5076236;28;1103;-48
2023/01/06 04:51:36;;;;;;;;;;;;;;;2.05;88.19;95785.88;5076044;28;966;-48
2023/01/06 04:54:02;;;;;;;;;;;;;;;1.74;85.13;95792.16;5076372;28;1041;-48
2023/01/06 04:56:28;;;;;;;;;;;;;;;1.59;86.62;95793.06;5076012;28;1037;-48
2023/01/06 04:58:54;;;;;;;;;;;;;;;1.44;88.45;95793.03;5076330;28;1294;-49
2023/01/06 05:01:21;;;;;;;;;;;;;;;1.56;88.20;95794.09;5075864;28;1918;-49
2023/01/06 05:03:47;;;;;;;;;;;;;;;1.41;89.71;95798.47;5075972;28;1112;-48
2023/01/06 05:06:13;;;;;;;;;;;;;;;1.45;89.64;95799.16;5058257;28;978;-49
2023/01/06 05:08:40;;;;;;;;;;;;;;;1.62;88.61;95806.06;5076080;28;968;-49
2023/01/06 05:11:08;;;;;;;;;;;;;;;1.53;88.49;95825.91;5075877;28;1025;-48
2023/01/06 05:13:34;;;;;;;;;;;;;;;1.42;88.89;95830.94;5075755;28;981;-49
2023/01/06 05:16:04;;;;;;;;;;;;;;;1.29;89.76;95828.16;5075608;28;1432;-49
2023/01/06 05:18:30;;;;;;;;;;;;;;;1.27;89.09;95830.03;5075695;28;974;-49
2023/01/06 05:20:56;;;;;;;;;;;;;;;1.22;89.59;95832.94;5074386;28;1980;-48
2023/01/06 05:23:22;;;;;;;;;;;;;;;1.19;88.66;95841.00;5075663;28;1162;-49
2023/01/06 05:25:52;;;;;;;;;;;;;;;1.02;89.67;95838.50;5075582;28;1200;-49
2023/01/06 05:28:18;;;;;;;;;;;;;;;0.77;91.17;95839.84;5075613;28;1024;-48
2023/01/06 05:30:44;;;;;;;;;;;;;;;0.91;92.12;95834.69;5075604;28;1056;-48
2023/01/06 05:33:10;;;;;;;;;;;;;;;1.21;90.55;95830.41;5075527;28;1066;-49
2023/01/06 05:35:36;;;;;;;;;;;;;;;1.31;88.94;95837.69;5075332;28;1117;-48
2023/01/06 05:38:02;;;;;;;;;;;;;;;1.45;89.09;95843.97;5075546;28;978;-48
2023/01/06 05:40:29;;;;;;;;;;;;;;;1.59;87.76;95835.25;5075432;28;1996;-48
2023/01/06 05:42:55;;;;;;;;;;;;;;;1.64;87.48;95830.56;5075279;28;1051;-49
2023/01/06 05:45:22;;;;;;;;;;;;;;;1.55;87.80;95829.28;5075290;28;958;-48
2023/01/06 05:47:48;;;;;;;;;;;;;;;1.63;88.10;95832.34;5075211;28;1069;-48
2023/01/06 05:50:14;;;;;;;;;;;;;;;1.75;87.16;95846.59;5075062;28;992;-48
2023/01/06 05:52:40;;;;;;;;;;;;;;;1.71;87.16;95837.16;5075249;28;1036;-49
2023/01/06 05:55:07;;;;;;;;;;;;;;;1.77;86.74;95834.16;5074966;28;1116;-48
2023/01/06 05:57:34;;;;;;;;;;;;;;;1.85;86.45;95817.88;5075041;28;1008;-48
2023/01/06 06:00:00;;;;;;;;;;;;;;;1.93;85.89;95813.00;5075053;28;964;-49
2023/01/06 06:02:26;;;;;;;;;;;;;;;2.05;86.27;95809.63;5074757;28;1907;-48
2023/01/06 06:04:52;;;;;;;;;;;;;;;2.11;85.81;95809.25;5074865;28;1026;-48
2023/01/06 06:07:18;;;;;;;;;;;;;;;2.04;84.72;95817.63;5074720;28;1869;-49
2023/01/06 06:09:44;;;;;;;;;;;;;;;1.90;85.77;95823.75;5074921;28;1015;-48
2023/01/06 06:12:11;;;;;;;;;;;;;;;1.83;87.23;95835.59;5074790;28;938;-48
2023/01/06 06:14:37;;;;;;;;;;;;;;;1.95;87.79;95853.31;5074535;28;1634;-49
2023/01/06 06:17:03;;;;;;;;;;;;;;;2.02;88.70;95849.38;5074611;28;1313;-48
2023/01/06 06:19:29;;;;;;;;;;;;;;;2.14;88.31;95867.13;5074483;28;969;-48
2023/01/06 06:21:55;;;;;;;;;;;;;;;2.04;88.16;95854.56;5074409;28;1906;-48
2023/01/06 06:24:21;;;;;;;;;;;;;;;2.08;88.25;95856.91;5074381;28;1276;-49
2023/01/06 06:26:47;;;;;;;;;;;;;;;2.36;87.19;95862.31;5074413;28;1020;-48
2023/01/06 06:29:13;;;;;;;;;;;;;;;2.49;86.24;95865.91;5074522;28;945;-48
2023/01/06 06:31:39;;;;;;;;;;;;;;;2.48;85.88;95862.41;5074190;28;918;-48
2023/01/06 06:34:05;;;;;;;;;;;;;;;2.61;85.77;95862.50;5074223;28;984;-48
2023/01/06 06:36:31;;;;;;;;;;;;;;;2.63;85.27;95862.41;5056046;28;1051;-48
2023/01/06 06:38:57;;;;;;;;;;;;;;;2.72;85.12;95859.19;5074334;28;1075;-49
2023/01/06 06:41:24;;;;;;;;;;;;;;;2.76;85.42;95857.22;5073575;28;1910;-49
2023/01/06 06:43:50;;;;;;;;;;;;;;;2.62;85.44;95852.78;5072663;28;1055;-48
2023/01/06 06:46:17;;;;;;;;;;;;;;;2.80;85.32;95864.84;5073507;28;1076;-48
2023/01/06 06:48:43;;;;;;;;;;;;;;;2.90;85.53;95862.47;5055073;28;1154;-49
2023/01/06 06:51:11;;;;;;;;;;;;;;;3.22;83.88;95876.28;5073391;28;1273;-48
2023/01/06 06:53:37;;;;;;;;;;;;;;;3.27;83.23;95878.63;5073949;28;988;-49
2023/01/06 06:56:04;;;;;;;;;;;;;;;3.89;81.24;95878.94;5073949;28;1000;-49
2023/01/06 06:58:30;;;;;;;;;;;;;;;7.68;67.25;95892.63;5073780;28;1015;-49
2023/01/06 07:00:56;;;;;;;;;;;;;;;10.51;55.03;95895.59;5073646;28;1882;-49
2023/01/06 07:03:24;;;;;;;;;;;;;;;11.22;50.41;95907.69;5073598;28;974;-49
2023/01/06 07:05:51;;;;;;;;;;;;;;;12.83;45.82;95917.78;5073807;28;1056;-49
2023/01/06 07:08:17;;;;;;;;;;;;;;;13.83;43.33;95920.06;5073883;28;1182;-49
2023/01/06 07:10:43;;;;;;;;;;;;;;;14.85;41.02;95931.50;5073744;28;982;-49
2023/01/06 07:13:09;;;;;;;;;;;;;;;15.63;39.69;95932.72;5073610;28;1015;-49
2023/01/06 07:15:35;;;;;;;;;;;;;;;16.27;38.73;95950.69;5073200;28;1077;-47
2023/01/06 07:18:03;;;;;;;;;;;;;;;16.42;37.81;95948.09;5055656;28;1123;-47
2023/01/06 07:20:30;;;;;;;;;;;;;;;13.29;43.58;95923.78;5073445;28;1988;-47
2023/01/06 07:22:56;;;;;;;;;;;;;;;10.24;51.56;95896.28;5073687;28;1020;-47
2023/01/06 07:25:22;;;;;;;;;;;;;;;8.73;58.11;95879.44;5073249;28;1164;-47
2023/01/06 07:27:55;;;;;;;;;;;;;;;7.95;60.76;95892.19;5055622;28;1021;-47
2023/01/06 07:30:21;;;;;;;;;;;;;;;8.34;60.59;95889.81;5073378;28;991;-47
2023/01/06 07:32:48;;;;;;;;;;;;;;;12.50;50.09;95916.66;5073605;28;1130;-47
2023/01/06 07:35:14;;;;;;;;;;;;;;;15.37;42.84;95927.59;5073343;28;1106;-47
2023/01/06 07:37:40;;;;;;;;;;;;;;;16.03;41.22;95940.88;5071888;28;1048;-47
2023/01/06 07:40:06;;;;;;;;;;;;;;;16.86;39.19;95953.72;5073342;28;1071;-47
2023/01/06 07:42:34;;;;;;;;;;;;;;;16.17;39.94;95959.84;5073241;28;1906;-47
2023/01/06 07:45:00;;;;;;;;;;;;;;;16.27;39.99;95953.41;5073330;28;1032;-47
2023/01/06 07:47:26;;;;;;;;;;;;;;;14.77;42.76;95935.03;5073193;28;1033;-47
2023/01/06 07:49:52;;;;;;;;;;;;;;;12.14;47.99;95922.03;5069674;28;1853;-47
2023/01/06 07:52:18;;;;;;;;;;;;;;;10.79;53.24;95901.03;5073307;28;1047;-47
2023/01/06 07:54:44;;;;;;;;;;;;;;;9.08;58.93;95891.53;5073188;28;1308;-47
2023/01/06 07:57:10;;;;;;;;;;;;;;;7.88;64.11;95901.66;5055427;28;1028;-47
2023/01/06 07:59:36;;;;;;;;;;;;;;;7.12;68.16;95905.03;5072913;28;1038;-47
2023/01/06 08:02:02;;;;;;;;;;;;;;;6.89;69.61;95919.31;5075229;28;1910;-47
2023/01/06 08:04:28;;;;;;;;;;;;;;;6.85;70.76;95926.69;5077163;28;1024;-46
2023/01/06 08:06:54;;;;;;;;;;;;;;;6.45;72.42;95930.59;5077323;28;1016;-48
2023/01/06 08:09:21;;;;;;;;;;;;;;;6.36;73.36;95936.59;5076790;28;1164;-48
2023/01/06 08:11:47;;;;;;;;;;;;;;;6.29;73.95;95932.69;5077124;28;1040;-48
2023/01/06 08:14:13;;;;;;;;;;;;;;;6.27;75.62;95928.47;5076802;28;1044;-48
2023/01/06 08:16:39;;;;;;;;;;;;;;;6.54;76.48;95936.16;5076690;28;1486;-48
2023/01/06 08:19:05;;;;;;;;;;;;;;;6.62;74.76;95941.72;5077169;28;995;-49
2023/01/06 08:21:31;;;;;;;;;;;;;;;6.61;75.26;95942.69;5076696;28;1999;-48
2023/01/06 08:23:57;;;;;;;;;;;;;;;6.51;75.93;95949.69;5076649;28;1269;-48
2023/01/06 08:26:23;;;;;;;;;;;;;;;6.61;75.24;95953.31;5076688;28;1016;-49
2023/01/06 08:28:50;;;;;;;;;;;;;;;6.52;76.93;95964.66;5076815;28;1029;-48
2023/01/06 08:31:18;;;;;;;;;;;;;;;6.59;76.67;95964.06;5076346;28;1280;-48
2023/01/06 08:33:44;;;;;;;;;;;;;;;6.69;76.91;95969.53;5076630;28;1028;-48
2023/01/06 08:36:12;;;;;;;;;;;;;;;6.56;78.32;95964.28;5076721;28;1220;-49
2023/01/06 08:38:38;;;;;;;;;;;;;;;6.54;77.58;95966.22;5076371;28;1045;-48
2023/01/06 08:41:04;;;;;;;;;;;;;;;6.69;76.76;95960.72;5076112;28;1988;-49
2023/01/06 08:43:30;;;;;;;;;;;;;;;6.81;76.16;95971.25;5076273;28;1061;-48
2023/01/06 08:46:01;;;;;;;;;;;;;;;7.01;75.78;95958.22;5076396;28;1195;-49
2023/01/06 08:48:27;;;;;;;;;;;;;;;7.16;75.73;95969.47;5076527;28;999;-48
2023/01/06 08:50:54;;;;;;;;;;;;;;;7.51;74.10;95966.69;5076241;28;1396;-49
2023/01/06 08:53:20;;;;;;;;;;;;;;;7.82;72.77;95964.22;5076320;28;961;-49
2023/01/06 08:55:46;;;;;;;;;;;;;;;8.17;72.50;95957.81;5076301;28;1019;-49
2023/01/06 08:58:12;;;;;;;;;;;;;;;8.70;71.82;95957.03;5076259;28;960;-49
2023/01/06 09:00:39;;;;;;;;;;;;;;;8.95;70.27;95953.09;5075703;28;1991;-49
2023/01/06 09:03:05;;;;;;;;;;;;;;;9.24;70.23;95945.28;5076350;28;1036;-48
2023/01/06 09:05:32;;;;;;;;;;;;;;;9.56;68.04;95947.78;5075921;28;1091;-49
2023/01/06 09:07:58;;;;;;;;;;;;;;;9.96;63.12;95946.06;5075948;28;1326;-48
2023/01/06 09:10:24;;;;;;;;;;;;;;;10.39;60.44;95952.03;5075618;28;1149;-49
2023/01/06 09:12:50;;;;;;;;;;;;;;;10.83;58.74;95955.09;5075309;28;1116;-49
2023/01/06 09:15:17;;;;;;;;;;;;;;;10.99;58.36;95950.00;5075715;28;1235;-49
2023/01/06 09:17:43;;;;;;;;;;;;;;;10.87;58.00;95945.78;5076029;28;1037;-49
2023/01/06 09:20:09;;;;;;;;;;;;;;;11.31;57.01;95948.81;5075669;28;1057;-49
2023/01/06 09:22:35;;;;;;;;;;;;;;;11.62;55.96;95938.66;5075597;28;1967;-48
2023/01/06 09:25:01;;;;;;;;;;;;;;;11.97;55.50;95933.56;5075599;28;1437;-49
2023/01/06 09:27:27;;;;;;;;;;;;;;;12.56;53.91;95936.66;5075540;28;1017;-49
2023/01/06 09:29:53;;;;;;;;;;;;;;;13.12;51.85;95943.47;5075232;28;1136;-49
2023/01/06 09:32:20;;;;;;;;;;;;;;;12.87;50.77;95939.78;5075320;28;1095;-49
2023/01/06 09:34:46;;;;;;;;;;;;;;;12.46;54.52;95932.25;5075687;28;1045;-48
2023/01/06 09:37:12;;;;;;;;;;;;;;;13.11;51.65;95936.44;5075596;28;1035;-49
2023/01/06 09:39:38;;;;;;;;;;;;;;;13.54;51.04;95936.53;5075342;28;1073;-49
2023/01/06 09:42:13;;;;;;;;;;;;;;;13.05;50.82;95943.28;5075177;28;2326;-49
2023/01/06 09:44:45;;;;;;;;;;;;;;;12.23;51.93;95929.16;5075441;28;1041;-48
2023/01/06 09:47:14;;;;;;;;;;;;;;;12.59;50.65;95922.94;5075496;28;964;-48
2023/01/06 09:49:46;;;;;;;;;;;;;;;12.19;50.72;95917.06;5075241;28;1095;-48
2023/01/06 09:52:17;;;;;;;;;;;;;;;13.04;48.70;95908.53;5075263;28;1041;-48
2023/01/06 09:54:49;;;;;;;;;;;;;;;13.63;47.14;95919.47;5075016;28;1031;-48
2023/01/06 09:57:17;;;;;;;;;;;;;;;14.12;47.29;95925.00;5075107;28;1119;-49
2023/01/06 09:59:58;;;;;;;;;;;;;;;14.17;44.29;95928.06;5074856;28;1985;-49
2023/01/06 10:02:51;;;;;;;;;;;;;;;14.21;44.61;95921.34;5074812;28;2245;-49
2023/01/06 10:05:24;;;;;;;;;;;;;;;14.22;45.20;95923.00;5071651;28;2173;-49
2023/01/06 10:08:11;;;;;;;;;;;;;;;14.62;43.56;95917.88;5074877;28;1060;-49
2023/01/06 10:10:43;;;;;;;;;;;;;;;14.92;43.27;95918.22;5033607;28;1278;-47
2023/01/06 10:13:09;;;;;;;;;;;;;;;13.88;43.90;95915.00;5074043;28;1378;-49
2023/01/06 10:15:39;;;;;;;;;;;;;;;12.86;45.95;95908.56;5074181;28;1586;-49
2023/01/06 10:18:08;;;;;;;;;;;;;;;12.67;46.85;95906.91;5074890;28;950;-48
2023/01/06 10:20:48;;;;;;;;;;;;;;;12.66;45.28;95900.72;5074612;28;1910;-49
2023/01/06 10:23:20;;;;;;;;;;;;;;;13.16;45.41;95901.06;5074076;28;1155;-49
2023/01/06 10:25:52;;;;;;;;;;;;;;;13.53;43.83;95890.03;5073857;28;1096;-49
2023/01/06 10:28:24;;;;;;;;;;;;;;;13.16;45.53;95887.63;5074278;28;1047;-48
2023/01/06 10:30:52;;;;;;;;;;;;;;;13.40;44.68;95893.16;5074329;28;1040;-48
2023/01/06 10:33:24;;;;;;;;;;;;;;;13.06;45.68;95893.94;5074153;28;1100;-49
2023/01/06 10:35:52;;;;;;;;;;;;;;;13.34;44.95;95890.28;5073965;28;1175;-48
2023/01/06 10:38:26;;;;;;;;;;;;;;;12.80;45.00;95885.88;5074212;28;963;-48
2023/01/06 10:40:52;;;;;;;;;;;;;;;12.36;45.67;95877.81;5073993;28;1906;-49
2023/01/06 10:43:21;;;;;;;;;;;;;;;12.02;46.84;95877.69;5074221;28;1050;-49
2023/01/06 10:45:47;;;;;;;;;;;;;;;12.56;46.02;95875.81;5073778;28;1095;-48
2023/01/06 10:48:17;;;;;;;;;;;;;;;12.50;46.34;95868.38;5074207;28;1039;-48
2023/01/06 10:50:43;;;;;;;;;;;;;;;12.97;45.53;95881.47;5074036;28;995;-49
2023/01/06 10:53:10;;;;;;;;;;;;;;;12.99;45.15;95881.31;5073888;28;1008;-49
2023/01/06 10:55:38;;;;;;;;;;;;;;;13.03;44.28;95880.84;5073592;28;1235;-49
2023/01/06 10:58:24;;;;;;;;;;;;;;;12.83;45.02;95884.75;5073852;28;1120;-49
2023/01/06 11:00:54;;;;;;;;;;;;;;;13.56;43.93;95881.63;5059868;28;1972;-49
2023/01/06 11:03:21;;;;;;;;;;;;;;;14.18;42.36;95891.25;5073638;28;1119;-49
2023/01/06 11:05:57;;;;;;;;;;;;;;;14.50;41.04;95887.75;5073385;28;1180;-49
2023/01/06 11:08:23;;;;;;;;;;;;;;;14.74;42.28;95886.94;5073989;28;978;-49
2023/01/06 11:10:51;;;;;;;;;;;;;;;14.62;40.58;95878.34;5073915;28;1045;-49
2023/01/06 11:13:26;;;;;;;;;;;;;;;14.80;40.85;95869.28;5072980;28;1207;-49
2023/01/06 11:15:54;;;;;;;;;;;;;;;14.92;41.46;95867.06;5073337;28;1153;-49
2023/01/06 11:18:28;;;;;;;;;;;;;;;14.91;40.01;95863.53;5073393;28;1031;-49
2023/01/06 11:21:08;;;;;;;;;;;;;;;14.62;42.04;95854.13;5073484;28;1979;-49
2023/01/06 11:23:35;;;;;;;;;;;;;;;14.60;40.79;95858.00;5073390;28;1151;-48
2023/01/06 11:26:10;;;;;;;;;;;;;;;14.57;40.87;95853.81;5073312;28;1049;-47
2023/01/06 11:28:39;;;;;;;;;;;;;;;14.42;41.56;95842.00;5073344;28;1025;-47
2023/01/06 11:31:07;;;;;;;;;;;;;;;14.44;41.12;95853.44;5073441;28;1211;-47
2023/01/06 11:33:35;;;;;;;;;;;;;;;14.35;40.82;95849.91;5073278;28;1048;-47
2023/01/06 11:36:09;;;;;;;;;;;;;;;14.51;40.87;95859.81;5073158;28;1171;-47
2023/01/06 11:39:04;;;;;;;;;;;;;;;14.51;41.15;95837.44;5073345;28;1962;-47
2023/01/06 11:41:33;;;;;;;;;;;;;;;14.40;40.72;95852.94;5055979;28;1999;-47
2023/01/06 11:44:12;;;;;;;;;;;;;;;13.84;41.44;95847.28;5073289;28;1040;-47
2023/01/06 11:46:45;;;;;;;;;;;;;;;13.55;42.41;95838.84;5071896;28;1190;-47
2023/01/06 11:49:16;;;;;;;;;;;;;;;13.24;42.68;95824.06;5073317;28;1095;-47
2023/01/06 11:51:43;;;;;;;;;;;;;;;13.08;43.32;95826.69;5073275;28;1240;-47
2023/01/06 11:54:41;;;;;;;;;;;;;;;13.26;42.54;95832.81;5073242;28;1036;-47
2023/01/06 11:57:45;;;;;;;;;;;;;;;13.56;42.50;95829.75;5029012;28;1343;-47
2023/01/06 12:00:15;;;;;;;;;;;;;;;13.75;41.90;95829.47;4991666;28;1316;-47
2023/01/06 12:02:41;;;;;;;;;;;;;;;13.65;42.22;95839.53;4991548;28;1994;-47
2023/01/06 12:05:17;;;;;;;;;;;;;;;13.55;42.26;95852.25;5031711;28;1033;-47
2023/01/06 12:07:50;;;;;;;;;;;;;;;13.59;42.30;95843.69;5073262;28;1252;-46
2023/01/06 12:10:19;;;;;;;;;;;;;;;13.61;41.93;95838.16;5073197;28;1044;-46
2023/01/06 12:12:45;;;;;;;;;;;;;;;13.48;41.95;95842.16;5073018;28;910;-47
2023/01/06 12:15:13;;;;;;;;;;;;;;;13.40;41.85;95852.88;5072824;28;1200;-47
2023/01/06 12:17:42;;;;;;;;;;;;;;;13.34;41.88;95848.16;5073168;28;964;-47
2023/01/06 12:20:21;;;;;;;;;;;;;;;13.35;42.24;95851.66;5073119;28;1069;-47
2023/01/06 12:22:50;;;;;;;;;;;;;;;12.97;42.82;95854.63;5073036;28;1319;-46
2023/01/06 12:25:28;;;;;;;;;;;;;;;12.65;43.19;95848.06;5071947;28;1509;-47
2023/01/06 12:28:00;;;;;;;;;;;;;;;12.33;43.79;95845.13;5072617;28;1167;-47
2023/01/06 12:30:32;;;;;;;;;;;;;;;12.18;44.29;95842.13;5072933;28;949;-47
2023/01/06 12:33:02;;;;;;;;;;;;;;;12.33;44.62;95837.06;5072953;28;978;-47
2023/01/06 12:35:30;;;;;;;;;;;;;;;12.54;44.22;95834.03;5072849;28;1181;-47
2023/01/06 12:38:27;;;;;;;;;;;;;;;12.74;43.62;95837.38;5072291;28;1863;-47
2023/01/06 12:40:58;;;;;;;;;;;;;;;12.87;43.77;95848.53;5056043;28;1901;-47
2023/01/06 12:43:28;;;;;;;;;;;;;;;12.81;43.14;95838.44;5072843;28;966;-47
2023/01/06 12:46:10;;;;;;;;;;;;;;;12.54;43.92;95855.50;5072745;28;1032;-46
2023/01/06 12:48:42;;;;;;;;;;;;;;;12.54;44.44;95842.94;5075200;28;1185;-47
2023/01/06 12:51:20;;;;;;;;;;;;;;;12.64;44.00;95827.59;5076283;28;1107;-46
2023/01/06 12:53:50;;;;;;;;;;;;;;;12.61;43.35;95827.06;5076441;28;1010;-47
2023/01/06 12:56:19;;;;;;;;;;;;;;;12.47;43.27;95829.31;5076403;28;1011;-47
2023/01/06 12:58:45;;;;;;;;;;;;;;;12.43;44.57;95827.09;5075929;28;1040;-47
2023/01/06 13:01:23;;;;;;;;;;;;;;;12.46;44.15;95832.13;5076340;28;1910;-46
2023/01/06 13:03:52;;;;;;;;;;;;;;;12.41;44.56;95842.53;5076257;28;967;-47
2023/01/06 13:06:18;;;;;;;;;;;;;;;12.32;44.21;95838.91;5075983;28;921;-47
2023/01/06 13:08:54;;;;;;;;;;;;;;;12.14;43.96;95836.25;5075783;28;1044;-47
2023/01/06 13:11:41;;;;;;;;;;;;;;;12.06;43.99;95834.31;5075891;28;1027;-46
2023/01/06 13:14:21;;;;;;;;;;;;;;;11.93;44.46;95828.50;5035180;28;1175;-47
2023/01/06 13:16:47;;;;;;;;;;;;;;;11.93;44.42;95825.00;5055743;28;1073;-46
2023/01/06 13:19:33;;;;;;;;;;;;;;;11.85;44.62;95834.59;5055839;28;1019;-46
2023/01/06 13:22:00;;;;;;;;;;;;;;;11.76;44.96;95843.56;5055848;28;1902;-47